Thurman, IA (51654)

08:28 AM CST del 05 Marzo 2015 (GMT -0600)
North Side of Town | Change Station
CLOSE
Current Station
Stazione meteo personale
Location: Thurman, IA
Altitudine: 1007 ft
Stazioni meteo nelle vicinanze

Alt. 1007 ft 40.82 °N, 95.75 °W | Updated 15 seconds ago

Sereno
Sereno
10.3 °F
Sembra 10 °F
N
0.0
Vento Variabile Vento da ENE
Gusts 2.0 mph

Oggi
Massima -- | Minima -- °F
--% Possibilità di precip.
Ieri
Massima -- | Minima -- °F
Precip. -- in
6:51 AM 6:18 PM
Luna piena, 100% visible
Pressione 30.55 in
Visibilità 10.0 miglia
Nuvole Sereno
Raffreddamento del vento 10 °F
Punto di rugiada 2 °F
Umidità 67%
Piovosità in
Spessore del manto nevoso Non disponibile.
Raggi UV 1 fuori da 12
Polline 1.20 fuori da 12
Qualità dell'aria Non disponibile.
Flu Activity Non disponibile.
METAR KPMV 051415Z AUTO 16005KT 10SM CLR M13/M19 A3055 RMK AO2 T11331190

More Conditions Fewer Conditions

Pressione 30.55 in
Visibilità 10.0 miglia
Nuvole Sereno
Raffreddamento del vento 10 °F
Punto di rugiada 2 °F
Umidità 67%
Piovosità in
Spessore del manto nevoso Non disponibile.
Raggi UV 1 fuori da 12
Polline 1.20 fuori da 12
Qualità dell'aria Non disponibile.
Flu Activity Non disponibile.
METAR KPMV 051415Z AUTO 16005KT 10SM CLR M13/M19 A3055 RMK AO2 T11331190

More Conditions Fewer Conditions

10-Day Weather Forecast

Almanac

Astronomia

Mar. 05, 2015 Alba Tramonto
Ora attuale
Crepuscolo civile
Crepuscolo nautico
Crepuscolo astronomico
Luna
Estensione della luce visibile
Lunghezza del giorno
Tomorrow will be .
, % of the Moon is Illuminated

Gli estremi di oggi

State Highs State Lows

Community

WunderPhotos

Upload Photos

1,802,780 foto caricate!

WunderBlogs® & News

Nearby

Qualità dell'aria

  Qualità dell'aria Indice AQ Inquinante
Not available.

Profondità neve

Stazione Profondità Altitudine

Attività sismica

Città  Distanza Mag. Data & Ora
Minimo Magnitudo Mostrato è 2.5.

Temperature delle acque costiere

Località Temperatura

Stazioni meteo nelle vicinanze